createdAt,value
2018-06-04T00:00:05.538Z,1010.94
2018-06-04T00:01:05.536Z,1010.95
2018-06-04T00:02:05.540Z,1010.94
2018-06-04T00:03:05.548Z,1010.94
2018-06-04T00:04:05.543Z,1010.96
2018-06-04T00:05:05.547Z,1010.97
2018-06-04T00:06:05.545Z,1010.96
2018-06-04T00:07:05.547Z,1010.96
2018-06-04T00:08:05.549Z,1010.96
2018-06-04T00:09:05.554Z,1010.96
2018-06-04T00:10:05.554Z,1010.99
2018-06-04T00:11:05.551Z,1010.96
2018-06-04T00:12:05.559Z,1011.02
2018-06-04T00:13:05.554Z,1011.01
2018-06-04T00:14:05.558Z,1010.99
2018-06-04T00:15:05.558Z,1010.96
2018-06-04T00:16:05.557Z,1010.97
2018-06-04T00:17:05.557Z,1010.97
2018-06-04T00:18:05.562Z,1010.98
2018-06-04T00:19:05.557Z,1010.98
2018-06-04T00:20:05.560Z,1010.93
2018-06-04T00:21:05.561Z,1010.90
2018-06-04T00:22:05.562Z,1010.91
2018-06-04T00:23:05.603Z,1010.92
2018-06-04T00:24:05.568Z,1010.90
2018-06-04T00:25:05.568Z,1010.91
2018-06-04T00:26:05.570Z,1010.90
2018-06-04T00:27:05.569Z,1010.89
2018-06-04T00:28:05.571Z,1010.86
2018-06-04T00:29:05.570Z,1010.86
2018-06-04T00:30:05.576Z,1010.85
2018-06-04T00:31:05.573Z,1010.86
2018-06-04T00:32:05.572Z,1010.88
2018-06-04T00:33:05.575Z,1010.89
2018-06-04T00:34:05.571Z,1010.87
2018-06-04T00:35:05.576Z,1010.87
2018-06-04T00:36:05.576Z,1010.85
2018-06-04T00:37:05.576Z,1010.85
2018-06-04T00:38:05.581Z,1010.80
2018-06-04T00:39:05.581Z,1010.85
2018-06-04T00:40:05.579Z,1010.82
2018-06-04T00:41:05.583Z,1010.86
2018-06-04T00:42:05.583Z,1010.83
2018-06-04T00:43:05.586Z,1010.84
2018-06-04T00:44:05.586Z,1010.85
2018-06-04T00:45:05.586Z,1010.83
2018-06-04T00:46:05.589Z,1010.87
2018-06-04T00:47:05.592Z,1010.86
2018-06-04T00:48:05.590Z,1010.84
2018-06-04T00:49:05.592Z,1010.81
2018-06-04T00:50:05.593Z,1010.82
2018-06-04T00:51:05.593Z,1010.82
2018-06-04T00:52:05.593Z,1010.81
2018-06-04T00:53:05.596Z,1010.79
2018-06-04T00:54:05.597Z,1010.80
2018-06-04T00:55:05.596Z,1010.78
2018-06-04T00:56:05.596Z,1010.78
2018-06-04T00:57:05.597Z,1010.78
2018-06-04T00:58:05.607Z,1010.74
2018-06-04T00:59:05.605Z,1010.73
2018-06-04T01:00:05.602Z,1010.72
2018-06-04T01:01:05.604Z,1010.75
2018-06-04T01:02:05.604Z,1010.75
2018-06-04T01:03:05.604Z,1010.76
2018-06-04T01:04:05.609Z,1010.73
2018-06-04T01:05:05.609Z,1010.73
2018-06-04T01:06:05.613Z,1010.72
2018-06-04T01:07:05.608Z,1010.72
2018-06-04T01:08:05.616Z,1010.76
2018-06-04T01:09:05.614Z,1010.75
2018-06-04T01:10:05.616Z,1010.75
2018-06-04T01:11:05.610Z,1010.74
2018-06-04T01:12:05.614Z,1010.73
2018-06-04T01:13:05.611Z,1010.74
2018-06-04T01:14:05.615Z,1010.73
2018-06-04T01:15:05.616Z,1010.72
2018-06-04T01:16:05.617Z,1010.75
2018-06-04T01:17:05.625Z,1010.69
2018-06-04T01:18:05.630Z,1010.72
2018-06-04T01:19:05.620Z,1010.70
2018-06-04T01:20:05.625Z,1010.69
2018-06-04T01:21:05.621Z,1010.67
2018-06-04T01:22:05.624Z,1010.66
2018-06-04T01:23:05.624Z,1010.66
2018-06-04T01:24:05.634Z,1010.65
2018-06-04T01:25:05.633Z,1010.64
2018-06-04T01:26:05.631Z,1010.64
2018-06-04T01:27:05.629Z,1010.65
2018-06-04T01:28:05.629Z,1010.64
2018-06-04T01:29:05.631Z,1010.60
2018-06-04T01:30:05.628Z,1010.60
2018-06-04T01:31:05.630Z,1010.57
2018-06-04T01:32:05.635Z,1010.59
2018-06-04T01:33:05.633Z,1010.58
2018-06-04T01:34:05.635Z,1010.58
2018-06-04T01:35:05.636Z,1010.58
2018-06-04T01:36:05.638Z,1010.56
2018-06-04T01:37:05.640Z,1010.55
2018-06-04T01:38:05.641Z,1010.54
2018-06-04T01:39:05.642Z,1010.53
2018-06-04T01:40:05.642Z,1010.56
2018-06-04T01:41:05.697Z,1010.55
2018-06-04T01:42:05.654Z,1010.55
2018-06-04T01:43:05.642Z,1010.55
2018-06-04T01:44:05.646Z,1010.53
2018-06-04T01:45:05.647Z,1010.52
2018-06-04T01:46:05.646Z,1010.51
2018-06-04T01:47:05.648Z,1010.52
2018-06-04T01:48:05.650Z,1010.52
2018-06-04T01:49:05.647Z,1010.54
2018-06-04T01:50:05.650Z,1010.53
2018-06-04T01:51:05.655Z,1010.53
2018-06-04T01:52:05.653Z,1010.52
2018-06-04T01:53:05.654Z,1010.51
2018-06-04T01:54:05.654Z,1010.51
2018-06-04T01:55:05.656Z,1010.53
2018-06-04T01:56:05.657Z,1010.53
2018-06-04T01:57:05.662Z,1010.51
2018-06-04T01:58:05.660Z,1010.53
2018-06-04T01:59:05.663Z,1010.52
2018-06-04T02:00:05.659Z,1010.53
2018-06-04T02:01:05.665Z,1010.53
2018-06-04T02:02:05.662Z,1010.53
2018-06-04T02:03:05.665Z,1010.54
2018-06-04T02:04:05.664Z,1010.60
2018-06-04T02:05:05.665Z,1010.57
2018-06-04T02:06:05.663Z,1010.56
2018-06-04T02:07:05.666Z,1010.58
2018-06-04T02:08:05.668Z,1010.55
2018-06-04T02:09:05.670Z,1010.54
2018-06-04T02:10:05.671Z,1010.53
2018-06-04T02:11:05.675Z,1010.55
2018-06-04T02:12:05.672Z,1010.49
2018-06-04T02:13:05.673Z,1010.50
2018-06-04T02:14:05.673Z,1010.52
2018-06-04T02:15:05.683Z,1010.51
2018-06-04T02:16:05.677Z,1010.51
2018-06-04T02:17:05.687Z,1010.50
2018-06-04T02:18:05.678Z,1010.46
2018-06-04T02:19:05.675Z,1010.45
2018-06-04T02:20:05.679Z,1010.45
2018-06-04T02:21:05.681Z,1010.45
2018-06-04T02:22:05.681Z,1010.46
2018-06-04T02:23:05.681Z,1010.44
2018-06-04T02:24:05.685Z,1010.44
2018-06-04T02:25:05.690Z,1010.44
2018-06-04T02:26:05.684Z,1010.44
2018-06-04T02:27:05.683Z,1010.41
2018-06-04T02:28:05.706Z,1010.47
2018-06-04T02:29:05.688Z,1010.45
2018-06-04T02:30:05.689Z,1010.43
2018-06-04T02:31:05.689Z,1010.45
2018-06-04T02:32:05.692Z,1010.43
2018-06-04T02:33:05.691Z,1010.39
2018-06-04T02:34:05.691Z,1010.40
2018-06-04T02:35:05.695Z,1010.40
2018-06-04T02:36:05.696Z,1010.38
2018-06-04T02:37:05.693Z,1010.37
2018-06-04T02:38:05.694Z,1010.38
2018-06-04T02:39:05.693Z,1010.38
2018-06-04T02:40:05.696Z,1010.38
2018-06-04T02:41:05.698Z,1010.41
2018-06-04T02:42:05.696Z,1010.36
2018-06-04T02:43:05.704Z,1010.37
2018-06-04T02:44:05.698Z,1010.37
2018-06-04T02:45:05.701Z,1010.34
2018-06-04T02:46:05.702Z,1010.35
2018-06-04T02:47:05.701Z,1010.36
2018-06-04T02:48:05.701Z,1010.35
2018-06-04T02:49:05.708Z,1010.35
2018-06-04T02:50:05.802Z,1010.35
2018-06-04T02:51:05.709Z,1010.36
2018-06-04T02:52:05.705Z,1010.35
2018-06-04T02:53:05.706Z,1010.35
2018-06-04T02:54:05.710Z,1010.39
2018-06-04T02:55:05.708Z,1010.35
2018-06-04T02:56:05.725Z,1010.36
2018-06-04T02:57:05.707Z,1010.34
2018-06-04T02:58:05.706Z,1010.34
2018-06-04T02:59:05.709Z,1010.35
2018-06-04T03:00:05.713Z,1010.32
2018-06-04T03:01:05.714Z,1010.30
2018-06-04T03:02:05.719Z,1010.30
2018-06-04T03:03:05.717Z,1010.30
2018-06-04T03:04:05.717Z,1010.26
2018-06-04T03:05:05.718Z,1010.27
2018-06-04T03:06:05.721Z,1010.27
2018-06-04T03:07:05.718Z,1010.28
2018-06-04T03:08:05.722Z,1010.27
2018-06-04T03:09:05.727Z,1010.30
2018-06-04T03:10:05.723Z,1010.28
2018-06-04T03:11:05.721Z,1010.28
2018-06-04T03:12:05.722Z,1010.26
2018-06-04T03:13:05.718Z,1010.26
2018-06-04T03:14:05.730Z,1010.25
2018-06-04T03:15:05.730Z,1010.25
2018-06-04T03:16:05.725Z,1010.22
2018-06-04T03:17:05.732Z,1010.23
2018-06-04T03:18:05.731Z,1010.23
2018-06-04T03:19:05.727Z,1010.23
2018-06-04T03:20:05.735Z,1010.23
2018-06-04T03:21:05.730Z,1010.21
2018-06-04T03:22:05.731Z,1010.19
2018-06-04T03:23:05.739Z,1010.20
2018-06-04T03:24:05.742Z,1010.17
2018-06-04T03:25:05.734Z,1010.16
2018-06-04T03:26:05.737Z,1010.14
2018-06-04T03:27:05.742Z,1010.15
2018-06-04T03:28:05.735Z,1010.17
2018-06-04T03:29:05.738Z,1010.19
2018-06-04T03:30:05.739Z,1010.17
2018-06-04T03:31:05.735Z,1010.15
2018-06-04T03:32:05.740Z,1010.11
2018-06-04T03:33:05.736Z,1010.11
2018-06-04T03:34:05.739Z,1010.10
2018-06-04T03:35:05.740Z,1010.08
2018-06-04T03:36:05.741Z,1010.06
2018-06-04T03:37:05.746Z,1010.08
2018-06-04T03:38:05.745Z,1010.10
2018-06-04T03:39:05.745Z,1010.09
2018-06-04T03:40:05.750Z,1010.11
2018-06-04T03:41:05.746Z,1010.11
2018-06-04T03:42:05.756Z,1010.10
2018-06-04T03:43:05.749Z,1010.08
2018-06-04T03:44:05.757Z,1010.07
2018-06-04T03:45:05.752Z,1010.03
2018-06-04T03:46:05.753Z,1009.97
2018-06-04T03:47:05.754Z,1009.99
2018-06-04T03:48:05.755Z,1009.98
2018-06-04T03:49:05.756Z,1009.99
2018-06-04T03:50:05.757Z,1009.99
2018-06-04T03:51:05.755Z,1010.00
2018-06-04T03:52:05.802Z,1010.01
2018-06-04T03:53:05.761Z,1010.01
2018-06-04T03:54:05.761Z,1009.96
2018-06-04T03:55:05.762Z,1009.96
2018-06-04T03:56:05.766Z,1009.96
2018-06-04T03:57:05.770Z,1010.00
2018-06-04T03:58:05.767Z,1009.98
2018-06-04T03:59:05.768Z,1009.98
2018-06-04T04:00:05.769Z,1010.02
2018-06-04T04:01:05.774Z,1010.02
2018-06-04T04:02:05.772Z,1010.02
2018-06-04T04:03:05.778Z,1009.98
2018-06-04T04:04:05.775Z,1009.94
2018-06-04T04:05:05.787Z,1009.98
2018-06-04T04:06:05.782Z,1010.00
2018-06-04T04:07:05.781Z,1009.96
2018-06-04T04:08:05.783Z,1009.99
2018-06-04T04:09:05.781Z,1009.98
2018-06-04T04:10:05.785Z,1010.00
2018-06-04T04:11:05.785Z,1009.96
2018-06-04T04:12:05.787Z,1009.96
2018-06-04T04:13:05.795Z,1010.01
2018-06-04T04:14:05.795Z,1010.02
2018-06-04T04:15:05.793Z,1009.98
2018-06-04T04:16:05.795Z,1009.96
2018-06-04T04:17:05.798Z,1010.03
2018-06-04T04:18:05.798Z,1010.02
2018-06-04T04:19:05.800Z,1009.99
2018-06-04T04:20:05.803Z,1010.02
2018-06-04T04:21:05.808Z,1010.03
2018-06-04T04:22:05.807Z,1010.01
2018-06-04T04:23:05.811Z,1010.05
2018-06-04T04:24:05.818Z,1010.08
2018-06-04T04:25:05.815Z,1010.07
2018-06-04T04:26:05.820Z,1010.03
2018-06-04T04:27:05.820Z,1010.02
2018-06-04T04:28:05.821Z,1010.04
2018-06-04T04:29:05.819Z,1010.00
2018-06-04T04:30:05.828Z,1010.01
2018-06-04T04:31:05.825Z,1010.00
2018-06-04T04:32:05.831Z,1010.01
2018-06-04T04:33:05.829Z,1010.03
2018-06-04T04:34:05.834Z,1010.02
2018-06-04T04:35:05.841Z,1010.02
2018-06-04T04:36:05.838Z,1010.03
2018-06-04T04:37:05.845Z,1010.03
2018-06-04T04:38:05.854Z,1010.05
2018-06-04T04:39:05.848Z,1010.03
2018-06-04T04:40:05.855Z,1010.06
2018-06-04T04:41:05.854Z,1010.04
2018-06-04T04:42:05.858Z,1010.02
2018-06-04T04:43:05.860Z,1010.03
2018-06-04T04:44:05.864Z,1010.02
2018-06-04T04:45:05.871Z,1010.07
2018-06-04T04:46:05.868Z,1010.06
2018-06-04T04:47:05.873Z,1010.07
2018-06-04T04:48:05.878Z,1010.04
2018-06-04T04:49:05.883Z,1010.03
2018-06-04T04:50:05.881Z,1010.05
2018-06-04T04:51:05.886Z,1010.03
2018-06-04T04:52:05.889Z,1010.02
2018-06-04T04:53:05.891Z,1010.03
2018-06-04T04:54:05.893Z,1010.01
2018-06-04T04:55:05.896Z,1010.00
2018-06-04T04:56:05.904Z,1010.01
2018-06-04T04:57:05.900Z,1010.04
2018-06-04T04:58:05.906Z,1010.05
2018-06-04T04:59:05.905Z,1009.99
2018-06-04T05:00:05.909Z,1009.99
2018-06-04T05:01:05.916Z,1009.98
2018-06-04T05:02:05.919Z,1009.99
2018-06-04T05:03:05.926Z,1010.02
2018-06-04T05:04:05.928Z,1010.04
2018-06-04T05:05:05.933Z,1010.02
2018-06-04T05:06:05.937Z,1009.98
2018-06-04T05:07:05.940Z,1010.01
2018-06-04T05:08:05.944Z,1010.00
2018-06-04T05:09:05.953Z,1009.99
2018-06-04T05:10:05.954Z,1010.02
2018-06-04T05:11:05.955Z,1010.02
2018-06-04T05:12:05.960Z,1010.04
2018-06-04T05:13:05.965Z,1010.09
2018-06-04T05:14:05.973Z,1010.02
2018-06-04T05:15:05.972Z,1010.04
2018-06-04T05:16:05.978Z,1010.03
2018-06-04T05:17:05.985Z,1010.04
2018-06-04T05:18:05.988Z,1010.06
2018-06-04T05:19:05.994Z,1010.02
2018-06-04T05:20:06.015Z,1009.99
2018-06-04T05:21:06.003Z,1010.00
2018-06-04T05:22:06.004Z,1009.98
2018-06-04T05:23:06.011Z,1009.97
2018-06-04T05:24:06.018Z,1009.99
2018-06-04T05:25:06.023Z,1010.00
2018-06-04T05:26:06.030Z,1009.97
2018-06-04T05:27:06.028Z,1009.97
2018-06-04T05:28:06.039Z,1009.93
2018-06-04T05:29:06.035Z,1009.93
2018-06-04T05:30:06.042Z,1009.88
2018-06-04T05:31:06.046Z,1009.92
2018-06-04T05:32:06.052Z,1009.93
2018-06-04T05:33:06.062Z,1009.93
2018-06-04T05:34:06.069Z,1009.93
2018-06-04T05:35:06.068Z,1009.93
2018-06-04T05:36:06.075Z,1009.89
2018-06-04T05:37:06.086Z,1009.93
2018-06-04T05:38:06.085Z,1009.90
2018-06-04T05:39:06.085Z,1009.95
2018-06-04T05:40:06.095Z,1009.95
2018-06-04T05:41:06.105Z,1009.92
2018-06-04T05:42:06.105Z,1009.96
2018-06-04T05:43:06.106Z,1009.93
2018-06-04T05:44:06.114Z,1009.95
2018-06-04T05:45:06.120Z,1009.92
2018-06-04T05:46:06.125Z,1009.95
2018-06-04T05:47:06.131Z,1009.93
2018-06-04T05:48:06.146Z,1009.93
2018-06-04T05:49:06.142Z,1009.91
2018-06-04T05:50:06.144Z,1009.94
2018-06-04T05:51:06.149Z,1009.91
2018-06-04T05:52:06.155Z,1009.91
2018-06-04T05:53:06.161Z,1009.92
2018-06-04T05:54:06.168Z,1009.92
2018-06-04T05:55:06.173Z,1009.92
2018-06-04T05:56:06.179Z,1009.91
2018-06-04T05:57:06.197Z,1009.89
2018-06-04T05:58:06.200Z,1009.86
2018-06-04T05:59:06.197Z,1009.88
2018-06-04T06:00:06.241Z,1009.88
2018-06-04T06:01:06.209Z,1009.90
2018-06-04T06:02:06.212Z,1009.90
2018-06-04T06:03:06.219Z,1009.88
2018-06-04T06:04:06.224Z,1009.87
2018-06-04T06:05:06.236Z,1009.90
2018-06-04T06:06:06.237Z,1009.88
2018-06-04T06:07:06.243Z,1009.92
2018-06-04T06:08:06.248Z,1009.86
2018-06-04T06:09:06.263Z,1009.86
2018-06-04T06:10:06.262Z,1009.88
2018-06-04T06:11:06.265Z,1009.93
2018-06-04T06:12:06.273Z,1009.91
2018-06-04T06:13:06.278Z,1009.94
2018-06-04T06:14:06.313Z,1009.95
2018-06-04T06:15:06.293Z,1009.96
2018-06-04T06:16:06.302Z,1009.96
2018-06-04T06:17:06.307Z,1009.94
2018-06-04T06:18:06.322Z,1009.95
2018-06-04T06:19:06.317Z,1009.97
2018-06-04T06:20:06.323Z,1009.96
2018-06-04T06:21:06.331Z,1009.95
2018-06-04T06:22:06.335Z,1009.96
2018-06-04T06:23:06.341Z,1009.95
2018-06-04T06:24:06.346Z,1009.96
2018-06-04T06:25:06.360Z,1009.93
2018-06-04T06:26:06.359Z,1009.92
2018-06-04T06:27:06.367Z,1009.85
2018-06-04T06:28:06.372Z,1009.83
2018-06-04T06:29:06.378Z,1009.85
2018-06-04T06:30:06.388Z,1009.83
2018-06-04T06:31:06.391Z,1009.81
2018-06-04T06:32:06.396Z,1009.83
2018-06-04T06:33:06.404Z,1009.82
2018-06-04T06:34:06.410Z,1009.81
2018-06-04T06:35:06.417Z,1009.79
2018-06-04T06:36:06.422Z,1009.80
2018-06-04T06:37:06.430Z,1009.77
2018-06-04T06:38:06.439Z,1009.81
2018-06-04T06:39:06.445Z,1009.77
2018-06-04T06:40:06.451Z,1009.78
2018-06-04T06:41:06.457Z,1009.77
2018-06-04T06:42:06.466Z,1009.67
2018-06-04T06:43:06.498Z,1009.75
2018-06-04T06:44:06.479Z,1009.73
2018-06-04T06:45:06.486Z,1009.76
2018-06-04T06:46:06.493Z,1009.77
2018-06-04T06:47:06.499Z,1009.74
2018-06-04T06:48:06.507Z,1009.75
2018-06-04T06:49:06.514Z,1009.70
2018-06-04T06:50:06.556Z,1009.71
2018-06-04T06:51:06.528Z,1009.72
2018-06-04T06:52:06.538Z,1009.77
2018-06-04T06:53:06.543Z,1009.73
2018-06-04T06:54:06.551Z,1009.74
2018-06-04T06:55:06.556Z,1009.72
2018-06-04T06:56:06.569Z,1009.74
2018-06-04T06:57:06.578Z,1009.72
2018-06-04T06:58:06.589Z,1009.70
2018-06-04T06:59:06.589Z,1009.70
2018-06-04T07:00:06.600Z,1009.72
2018-06-04T07:01:06.602Z,1009.67
2018-06-04T07:02:06.615Z,1009.71
2018-06-04T07:03:06.618Z,1009.65
2018-06-04T07:04:06.625Z,1009.72
2018-06-04T07:05:06.639Z,1009.69
2018-06-04T07:06:06.647Z,1009.64
2018-06-04T07:07:06.652Z,1009.67
2018-06-04T07:08:06.661Z,1009.64
2018-06-04T07:09:06.671Z,1009.63
2018-06-04T07:10:06.678Z,1009.62
2018-06-04T07:11:06.688Z,1009.60
2018-06-04T07:12:06.693Z,1009.60
2018-06-04T07:13:06.703Z,1009.57
2018-06-04T07:14:06.710Z,1009.56
2018-06-04T07:15:06.716Z,1009.59
2018-06-04T07:16:06.730Z,1009.52
2018-06-04T07:17:06.740Z,1009.56
2018-06-04T07:18:06.749Z,1009.57
2018-06-04T07:19:06.757Z,1009.53
2018-06-04T07:20:06.770Z,1009.54
2018-06-04T07:21:06.778Z,1009.54
2018-06-04T07:22:06.785Z,1009.50
2018-06-04T07:23:06.793Z,1009.54
2018-06-04T07:24:06.806Z,1009.50
2018-06-04T07:25:06.813Z,1009.51
2018-06-04T07:26:06.822Z,1009.51
2018-06-04T07:27:06.831Z,1009.53
2018-06-04T07:28:06.842Z,1009.50
2018-06-04T07:29:06.852Z,1009.50
2018-06-04T07:30:06.869Z,1009.53
2018-06-04T07:31:06.876Z,1009.55
2018-06-04T07:32:06.879Z,1009.55
2018-06-04T07:33:06.888Z,1009.54
2018-06-04T07:34:06.893Z,1009.53
2018-06-04T07:35:06.910Z,1009.51
2018-06-04T07:36:06.918Z,1009.49
2018-06-04T07:37:06.925Z,1009.51
2018-06-04T07:38:06.934Z,1009.52
2018-06-04T07:39:06.943Z,1009.53
2018-06-04T07:40:06.949Z,1009.51
2018-06-04T07:41:06.995Z,1009.52
2018-06-04T07:42:06.971Z,1009.51
2018-06-04T07:43:06.980Z,1009.46
2018-06-04T07:44:06.989Z,1009.51
2018-06-04T07:45:07.000Z,1009.53
2018-06-04T07:46:07.009Z,1009.50
2018-06-04T07:47:07.016Z,1009.47
2018-06-04T07:48:07.023Z,1009.51
2018-06-04T07:49:07.036Z,1009.51
2018-06-04T07:50:07.048Z,1009.52
2018-06-04T07:51:07.051Z,1009.54
2018-06-04T07:52:07.059Z,1009.51
2018-06-04T07:53:07.069Z,1009.54
2018-06-04T07:54:07.078Z,1009.52
2018-06-04T07:55:07.086Z,1009.55
2018-06-04T07:56:07.146Z,1009.53
2018-06-04T07:57:07.106Z,1009.50
2018-06-04T07:58:07.113Z,1009.48
2018-06-04T07:59:07.122Z,1009.48
2018-06-04T08:00:07.132Z,1009.47
2018-06-04T08:01:07.141Z,1009.50
2018-06-04T08:02:07.152Z,1009.48
2018-06-04T08:03:07.159Z,1009.45
2018-06-04T08:04:07.174Z,1009.48
2018-06-04T08:05:07.181Z,1009.44
2018-06-04T08:06:07.198Z,1009.39
2018-06-04T08:07:07.198Z,1009.38
2018-06-04T08:08:07.206Z,1009.40
2018-06-04T08:09:07.215Z,1009.40
2018-06-04T08:10:07.293Z,1009.37
2018-06-04T08:11:07.242Z,1009.34
2018-06-04T08:12:07.249Z,1009.32
2018-06-04T08:13:07.255Z,1009.33
2018-06-04T08:14:07.261Z,1009.35
2018-06-04T08:15:07.269Z,1009.38
2018-06-04T08:16:07.279Z,1009.42
2018-06-04T08:17:07.290Z,1009.29
2018-06-04T08:18:07.299Z,1009.27
2018-06-04T08:19:07.308Z,1009.34
2018-06-04T08:20:07.317Z,1009.41
2018-06-04T08:21:07.328Z,1009.45
2018-06-04T08:22:07.340Z,1009.39
2018-06-04T08:23:07.342Z,1009.38
2018-06-04T08:24:07.360Z,1009.38
2018-06-04T08:25:07.373Z,1009.43
2018-06-04T08:26:07.374Z,1009.43
2018-06-04T08:27:07.406Z,1009.46
2018-06-04T08:28:07.394Z,1009.42
2018-06-04T08:29:07.400Z,1009.47
2018-06-04T08:30:07.410Z,1009.44
2018-06-04T08:31:07.418Z,1009.26
2018-06-04T08:32:07.430Z,1009.31
2018-06-04T08:33:07.439Z,1009.27
2018-06-04T08:34:07.447Z,1009.43
2018-06-04T08:35:07.458Z,1009.43
2018-06-04T08:36:07.465Z,1009.38
2018-06-04T08:37:07.472Z,1009.39
2018-06-04T08:38:07.501Z,1009.43
2018-06-04T08:39:07.494Z,1009.45
2018-06-04T08:40:07.507Z,1009.46
2018-06-04T08:41:07.516Z,1009.46
2018-06-04T08:42:07.525Z,1009.43
2018-06-04T08:43:07.534Z,1009.45
2018-06-04T08:44:07.549Z,1009.45
2018-06-04T08:45:07.559Z,1009.46
2018-06-04T08:46:07.566Z,1009.43
2018-06-04T08:47:07.576Z,1009.40
2018-06-04T08:48:07.593Z,1009.41
2018-06-04T08:49:07.604Z,1009.42
2018-06-04T08:50:07.611Z,1009.22
2018-06-04T08:51:07.623Z,1009.32
2018-06-04T08:52:07.632Z,1009.32
2018-06-04T08:53:07.652Z,1009.41
2018-06-04T08:54:07.655Z,1009.40
2018-06-04T08:55:07.664Z,1009.44
2018-06-04T08:56:07.675Z,1009.34
2018-06-04T08:57:07.685Z,1009.31
2018-06-04T08:58:07.704Z,1009.23
2018-06-04T08:59:07.715Z,1009.22
2018-06-04T09:00:07.725Z,1009.19
2018-06-04T09:01:07.735Z,1009.15
2018-06-04T09:02:07.748Z,1009.14
2018-06-04T09:03:07.749Z,1009.16
2018-06-04T09:04:07.762Z,1009.14
2018-06-04T09:05:07.771Z,1009.11
2018-06-04T09:06:07.784Z,1009.09
2018-06-04T09:07:07.791Z,1009.05
2018-06-04T09:08:07.800Z,1009.10
2018-06-04T09:09:07.806Z,1009.09
2018-06-04T09:10:07.823Z,1009.10
2018-06-04T09:11:07.829Z,1009.09
2018-06-04T09:12:07.837Z,1009.12
2018-06-04T09:13:07.849Z,1009.17
2018-06-04T09:14:07.855Z,1009.15
2018-06-04T09:15:07.862Z,1009.09
2018-06-04T09:16:07.873Z,1009.07
2018-06-04T09:17:07.879Z,1009.12
2018-06-04T09:18:07.887Z,1009.10
2018-06-04T09:19:07.895Z,1009.05
2018-06-04T09:20:07.901Z,1009.05
2018-06-04T09:21:07.908Z,1009.06
2018-06-04T09:22:08.001Z,1009.00
2018-06-04T09:23:07.923Z,1009.03
2018-06-04T09:24:07.932Z,1009.01
2018-06-04T09:25:07.946Z,1008.99
2018-06-04T09:26:07.952Z,1008.95
2018-06-04T09:27:07.961Z,1008.97
2018-06-04T09:28:07.962Z,1008.86
2018-06-04T09:29:07.973Z,1009.00
2018-06-04T09:30:07.979Z,1009.03
2018-06-04T09:31:07.986Z,1009.01
2018-06-04T09:32:07.992Z,1008.94
2018-06-04T09:33:07.998Z,1008.97
2018-06-04T09:34:08.004Z,1008.97
2018-06-04T09:35:08.012Z,1008.93
2018-06-04T09:36:08.018Z,1008.95
2018-06-04T09:37:08.025Z,1008.91
2018-06-04T09:38:08.032Z,1008.93
2018-06-04T09:39:08.038Z,1008.96
2018-06-04T09:40:08.099Z,1008.96
2018-06-04T09:41:08.052Z,1008.93
2018-06-04T09:42:08.058Z,1008.93
2018-06-04T09:43:08.058Z,1008.95
2018-06-04T09:44:08.064Z,1008.93
2018-06-04T09:45:08.077Z,1009.01
2018-06-04T09:46:08.081Z,1008.95
2018-06-04T09:47:08.084Z,1008.94
2018-06-04T09:48:08.091Z,1008.89
2018-06-04T09:49:08.096Z,1008.86
2018-06-04T09:50:08.103Z,1008.86
2018-06-04T09:51:08.107Z,1008.83
2018-06-04T09:52:08.116Z,1008.86
2018-06-04T09:53:08.128Z,1008.84
2018-06-04T09:54:08.186Z,1008.83
2018-06-04T09:55:08.135Z,1008.80
2018-06-04T09:56:08.140Z,1008.84
2018-06-04T09:57:08.146Z,1008.79
2018-06-04T09:58:08.153Z,1008.82
2018-06-04T09:59:08.159Z,1008.84
2018-06-04T10:00:08.163Z,1008.87
2018-06-04T10:01:08.173Z,1008.78
2018-06-04T10:02:08.178Z,1008.79
2018-06-04T10:03:08.181Z,1008.77
2018-06-04T10:04:08.191Z,1008.75
2018-06-04T10:05:08.194Z,1008.73
2018-06-04T10:06:08.203Z,1008.77
2018-06-04T10:07:08.204Z,1008.77
2018-06-04T10:08:08.212Z,1008.74
2018-06-04T10:09:08.219Z,1008.73
2018-06-04T10:10:08.225Z,1008.69
2018-06-04T10:11:08.230Z,1008.74
2018-06-04T10:12:08.237Z,1008.76
2018-06-04T10:13:08.243Z,1008.75
2018-06-04T10:14:08.251Z,1008.75
2018-06-04T10:15:08.253Z,1008.76
2018-06-04T10:16:08.263Z,1008.76
2018-06-04T10:17:08.267Z,1008.74
2018-06-04T10:18:08.275Z,1008.74
2018-06-04T10:19:08.280Z,1008.71
2018-06-04T10:20:08.289Z,1008.75
2018-06-04T10:21:08.289Z,1008.72
2018-06-04T10:22:08.299Z,1008.71
2018-06-04T10:23:08.304Z,1008.71
2018-06-04T10:24:08.307Z,1008.70
2018-06-04T10:25:08.314Z,1008.73
2018-06-04T10:26:08.321Z,1008.72
2018-06-04T10:27:08.331Z,1008.70
2018-06-04T10:28:08.334Z,1008.71
2018-06-04T10:29:08.340Z,1008.68
2018-06-04T10:30:08.353Z,1008.71
2018-06-04T10:31:08.353Z,1008.70
2018-06-04T10:32:08.359Z,1008.67
2018-06-04T10:33:08.371Z,1008.62
2018-06-04T10:34:08.373Z,1008.68
2018-06-04T10:35:08.379Z,1008.65
2018-06-04T10:36:08.385Z,1008.65
2018-06-04T10:37:08.391Z,1008.62
2018-06-04T10:38:08.398Z,1008.62
2018-06-04T10:39:08.404Z,1008.59
2018-06-04T10:40:08.413Z,1008.60
2018-06-04T10:41:08.417Z,1008.59
2018-06-04T10:42:08.423Z,1008.61
2018-06-04T10:43:08.423Z,1008.57
2018-06-04T10:44:08.439Z,1008.53
2018-06-04T10:45:08.443Z,1008.51
2018-06-04T10:46:08.451Z,1008.57
2018-06-04T10:47:08.454Z,1008.56
2018-06-04T10:48:08.460Z,1008.51
2018-06-04T10:49:08.466Z,1008.54
2018-06-04T10:50:08.474Z,1008.42
2018-06-04T10:51:08.520Z,1008.47
2018-06-04T10:52:08.483Z,1008.53
2018-06-04T10:53:08.531Z,1008.49
2018-06-04T10:54:08.496Z,1008.52
2018-06-04T10:55:08.505Z,1008.46
2018-06-04T10:56:08.507Z,1008.52
2018-06-04T10:57:08.512Z,1008.52
2018-06-04T10:58:08.519Z,1008.48
2018-06-04T10:59:08.525Z,1008.45
2018-06-04T11:00:08.531Z,1008.41
2018-06-04T11:01:08.539Z,1008.34
2018-06-04T11:02:08.543Z,1008.28
2018-06-04T11:03:08.547Z,1008.37
2018-06-04T11:04:08.620Z,1008.32
2018-06-04T11:05:08.560Z,1008.39
2018-06-04T11:06:08.567Z,1008.38
2018-06-04T11:07:08.572Z,1008.39
2018-06-04T11:08:08.584Z,1008.40
2018-06-04T11:09:08.582Z,1008.40
2018-06-04T11:10:08.589Z,1008.38
2018-06-04T11:11:08.596Z,1008.41
2018-06-04T11:12:08.602Z,1008.42
2018-06-04T11:13:08.649Z,1008.35
2018-06-04T11:14:08.614Z,1008.39
2018-06-04T11:15:08.623Z,1008.38
2018-06-04T11:16:08.623Z,1008.40
2018-06-04T11:17:08.629Z,1008.39
2018-06-04T11:18:08.635Z,1008.34
2018-06-04T11:19:08.642Z,1008.38
2018-06-04T11:20:08.648Z,1008.37
2018-06-04T11:21:08.656Z,1008.33
2018-06-04T11:22:08.659Z,1008.34
2018-06-04T11:23:08.664Z,1008.30
2018-06-04T11:24:08.667Z,1008.31
2018-06-04T11:25:08.678Z,1008.31
2018-06-04T11:26:08.682Z,1008.31
2018-06-04T11:27:08.686Z,1008.34
2018-06-04T11:28:08.694Z,1008.32
2018-06-04T11:29:08.698Z,1008.34
2018-06-04T11:30:08.708Z,1008.29
2018-06-04T11:31:08.711Z,1008.27
2018-06-04T11:32:08.716Z,1008.24
2018-06-04T11:33:08.724Z,1008.26
2018-06-04T11:34:08.729Z,1008.23
2018-06-04T11:35:08.756Z,1008.24
2018-06-04T11:36:08.743Z,1008.24
2018-06-04T11:37:08.747Z,1008.21
2018-06-04T11:38:08.754Z,1008.24
2018-06-04T11:39:08.760Z,1008.22
2018-06-04T11:40:08.835Z,1008.19
2018-06-04T11:41:08.772Z,1008.18
2018-06-04T11:42:08.779Z,1008.19
2018-06-04T11:43:08.780Z,1008.21
2018-06-04T11:44:08.792Z,1008.15
2018-06-04T11:45:08.798Z,1008.12
2018-06-04T11:46:08.803Z,1008.10
2018-06-04T11:47:08.810Z,1008.13
2018-06-04T11:48:08.814Z,1008.14
2018-06-04T11:49:08.821Z,1008.15
2018-06-04T11:50:08.834Z,1008.14
2018-06-04T11:51:08.897Z,1008.18
2018-06-04T11:52:08.844Z,1008.16
2018-06-04T11:53:08.846Z,1008.15
2018-06-04T11:54:08.917Z,1008.18
2018-06-04T11:55:08.863Z,1008.12
2018-06-04T11:56:08.864Z,1008.10
2018-06-04T11:57:08.870Z,1008.10
2018-06-04T11:58:08.877Z,1008.09
2018-06-04T11:59:08.885Z,1008.08
2018-06-04T12:00:08.889Z,1008.07
2018-06-04T12:01:08.895Z,1008.11
2018-06-04T12:02:08.900Z,1008.05
2018-06-04T12:03:08.961Z,1008.05
2018-06-04T12:04:08.912Z,1008.05
2018-06-04T12:05:08.928Z,1008.03